Time;durP1;ratioP1;P1;durP2;ratioP2;P2;SDS_P1;SDS_P2;PMS_P1;PMS_P2;Temp;Humidity;BMP_temperature;BMP_pressure;BME280_temperature;BME280_humidity;BME280_pressure;Samples;Min_cycle;Max_cycle;Signal;HPM_P1;HPM_P2
2021/12/11 05:00:49;;;;;;;41.42;21.30;;;2.80;99.90;;;;;;5938454;22;20320;-68
2021/12/11 05:06:28;;;;;;;45.40;20.25;;;2.80;99.90;;;;;;5034941;28;20217;-68
2021/12/11 05:09:18;;;;;;;45.42;21.67;;;2.80;99.90;;;;;;5034578;28;20232;-69
2021/12/11 05:11:54;;;;;;;41.22;18.80;;;2.80;99.90;;;;;;5019832;28;20242;-68
2021/12/11 05:14:23;;;;;;;38.42;18.88;;;2.80;99.90;;;;;;5014902;28;20292;-69
2021/12/11 05:16:51;;;;;;;40.20;20.05;;;2.80;99.90;;;;;;5000592;28;20254;-70
2021/12/11 05:19:18;;;;;;;37.63;20.58;;;2.80;99.90;;;;;;4993696;28;20204;-69
2021/12/11 05:21:45;;;;;;;40.58;20.77;;;2.80;99.90;;;;;;4996353;28;20232;-68
2021/12/11 05:24:12;;;;;;;46.70;19.90;;;2.80;99.90;;;;;;4997913;28;20208;-69
2021/12/11 05:26:39;;;;;;;46.00;21.58;;;2.70;99.90;;;;;;5014919;28;20642;-69
2021/12/11 05:29:06;;;;;;;39.17;20.17;;;2.70;99.90;;;;;;4999746;28;20211;-69
2021/12/11 05:31:33;;;;;;;40.55;20.42;;;2.70;99.90;;;;;;4999615;28;20220;-69
2021/12/11 05:34:03;;;;;;;41.58;19.10;;;2.70;99.90;;;;;;4995190;28;20235;-69
2021/12/11 05:36:31;;;;;;;39.17;18.55;;;2.60;99.90;;;;;;5014872;28;20203;-69
2021/12/11 05:38:58;;;;;;;41.38;19.67;;;2.60;99.90;;;;;;5014149;28;20217;-68
2021/12/11 05:41:25;;;;;;;40.63;17.70;;;2.60;99.90;;;;;;5013163;28;20734;-69
2021/12/11 05:43:53;;;;;;;41.25;18.65;;;2.60;99.90;;;;;;5013268;28;20207;-69
2021/12/11 05:46:20;;;;;;;35.78;17.50;;;2.70;99.90;;;;;;4995015;28;20208;-69
2021/12/11 05:48:50;;;;;;;38.30;17.85;;;2.70;99.90;;;;;;4993877;28;20203;-69
2021/12/11 05:51:22;;;;;;;39.25;18.85;;;2.70;99.90;;;;;;5011863;28;20227;-69
2021/12/11 05:53:53;;;;;;;39.80;18.20;;;2.70;99.90;;;;;;5012008;28;20474;-69
2021/12/11 05:56:20;;;;;;;37.58;18.00;;;2.70;99.90;;;;;;4996855;28;20204;-69
2021/12/11 05:58:56;;;;;;;34.72;17.30;;;2.70;99.90;;;;;;5007572;28;20311;-70
2021/12/11 06:01:28;;;;;;;38.20;18.98;;;2.60;99.90;;;;;;5010569;28;20226;-69
2021/12/11 06:03:55;;;;;;;37.15;17.00;;;2.60;99.90;;;;;;4992731;28;20262;-68
2021/12/11 06:06:24;;;;;;;32.92;17.67;;;2.60;99.90;;;;;;5004648;28;20215;-69
2021/12/11 06:08:50;;;;;;;39.28;18.25;;;2.60;99.90;;;;;;5001211;28;20211;-69
2021/12/11 06:11:19;;;;;;;42.10;18.77;;;2.60;99.90;;;;;;5008890;28;20219;-69
2021/12/11 06:13:47;;;;;;;38.38;18.55;;;2.60;99.90;;;;;;5018573;28;20207;-69
2021/12/11 06:16:14;;;;;;;37.08;18.33;;;2.60;99.90;;;;;;5009683;28;20242;-69
2021/12/11 06:18:42;;;;;;;38.13;17.67;;;2.60;99.90;;;;;;5009843;28;20195;-69
2021/12/11 06:21:09;;;;;;;35.00;17.67;;;2.60;99.90;;;;;;4997530;28;20235;-70
2021/12/11 06:23:38;;;;;;;43.65;18.17;;;2.60;99.90;;;;;;4999165;28;20199;-69
2021/12/11 06:26:06;;;;;;;38.53;18.27;;;2.60;99.90;;;;;;5011990;28;20237;-69
2021/12/11 06:28:34;;;;;;;41.30;17.88;;;2.50;99.90;;;;;;5006468;28;20358;-69
2021/12/11 06:31:02;;;;;;;32.80;16.35;;;2.60;99.90;;;;;;4992324;28;20228;-69
2021/12/11 06:33:31;;;;;;;39.25;18.30;;;2.50;99.90;;;;;;4992357;28;20200;-69
2021/12/11 06:36:02;;;;;;;36.97;17.60;;;2.50;99.90;;;;;;4992538;28;20211;-69
2021/12/11 06:38:31;;;;;;;34.20;18.33;;;2.50;99.90;;;;;;4992441;28;20215;-69
2021/12/11 06:41:00;;;;;;;43.55;19.60;;;2.40;99.90;;;;;;5000010;28;20223;-69
2021/12/11 06:43:26;;;;;;;37.60;19.42;;;2.40;99.90;;;;;;5008953;28;20265;-68
2021/12/11 06:45:54;;;;;;;34.35;18.20;;;2.40;99.90;;;;;;4992393;28;20263;-69
2021/12/11 06:48:21;;;;;;;42.00;20.67;;;2.40;99.90;;;;;;5007992;28;20336;-68
2021/12/11 06:50:49;;;;;;;33.20;17.08;;;2.40;99.90;;;;;;5010133;28;20293;-69
2021/12/11 06:53:22;;;;;;;37.65;16.85;;;2.40;99.90;;;;;;5010922;28;20257;-69
2021/12/11 06:55:49;;;;;;;38.72;17.95;;;2.40;99.90;;;;;;4992368;28;20274;-69
2021/12/11 06:58:17;;;;;;;34.63;16.63;;;2.40;99.90;;;;;;4998735;28;20207;-69
2021/12/11 07:00:44;;;;;;;38.25;16.92;;;2.40;99.90;;;;;;5004545;28;20650;-69
2021/12/11 07:03:11;;;;;;;38.30;20.70;;;2.30;99.90;;;;;;4991380;28;20315;-69
2021/12/11 07:05:37;;;;;;;33.42;18.40;;;2.20;99.90;;;;;;5005580;28;20564;-68
2021/12/11 07:08:06;;;;;;;38.15;19.38;;;2.20;99.90;;;;;;4991586;28;20231;-69
2021/12/11 07:10:34;;;;;;;46.38;18.40;;;2.20;99.90;;;;;;5003486;28;20616;-68
2021/12/11 07:13:01;;;;;;;32.30;17.70;;;2.10;99.90;;;;;;5010946;28;20207;-70
2021/12/11 07:15:30;;;;;;;32.20;16.45;;;2.10;99.90;;;;;;5009512;28;20310;-69
2021/12/11 07:17:57;;;;;;;35.83;17.92;;;2.00;99.90;;;;;;5010145;28;20258;-71
2021/12/11 07:20:24;;;;;;;34.40;19.88;;;2.00;99.90;;;;;;4995169;28;20216;-68
2021/12/11 07:22:51;;;;;;;34.10;18.95;;;1.90;99.90;;;;;;5004642;28;20274;-69
2021/12/11 07:25:25;;;;;;;39.13;19.17;;;1.90;99.90;;;;;;5007922;28;20211;-70
2021/12/11 07:27:53;;;;;;;33.88;17.05;;;1.80;99.90;;;;;;5011832;28;20642;-69
2021/12/11 07:30:20;;;;;;;49.10;18.30;;;1.80;99.90;;;;;;4995294;28;20210;-70
2021/12/11 07:32:48;;;;;;;36.97;18.38;;;1.80;99.90;;;;;;5010700;28;20270;-69
2021/12/11 07:35:15;;;;;;;47.80;18.33;;;1.70;99.90;;;;;;4994415;28;20204;-70
2021/12/11 07:37:47;;;;;;;40.55;18.88;;;1.70;99.90;;;;;;4991771;28;20342;-70
2021/12/11 07:40:14;;;;;;;39.78;19.33;;;1.70;99.90;;;;;;4994234;28;20568;-69
2021/12/11 07:42:40;;;;;;;40.13;20.60;;;1.70;99.90;;;;;;5000477;28;20568;-70
2021/12/11 07:45:08;;;;;;;37.88;18.75;;;1.70;99.90;;;;;;4997617;28;20203;-70
2021/12/11 07:47:34;;;;;;;37.78;18.63;;;1.60;99.90;;;;;;4998781;28;20222;-69
2021/12/11 07:50:03;;;;;;;33.20;16.92;;;1.60;99.90;;;;;;5001498;28;20195;-70
2021/12/11 07:52:30;;;;;;;35.17;17.05;;;1.60;99.90;;;;;;5011081;28;20223;-69
2021/12/11 07:54:57;;;;;;;33.15;17.27;;;1.60;99.90;;;;;;5002893;28;20281;-72
2021/12/11 07:57:24;;;;;;;35.67;18.33;;;1.60;99.90;;;;;;5010798;28;20207;-69
2021/12/11 07:59:50;;;;;;;38.20;18.58;;;1.50;99.90;;;;;;5000071;28;20661;-70
2021/12/11 08:02:17;;;;;;;33.88;17.17;;;1.50;99.90;;;;;;4990769;28;20698;-70
2021/12/11 08:04:44;;;;;;;38.17;18.60;;;1.50;99.90;;;;;;4998139;28;20208;-70
2021/12/11 08:07:12;;;;;;;41.20;18.85;;;1.50;99.90;;;;;;4991607;28;20552;-70
2021/12/11 08:09:39;;;;;;;40.35;19.80;;;1.50;99.90;;;;;;5001575;28;20211;-69
2021/12/11 08:12:07;;;;;;;39.03;18.23;;;1.50;99.90;;;;;;5009584;28;20597;-70
2021/12/11 08:14:35;;;;;;;41.03;20.55;;;1.50;99.90;;;;;;5003712;28;20204;-69
2021/12/11 08:17:05;;;;;;;33.28;17.80;;;1.50;99.90;;;;;;5005065;28;20270;-69
2021/12/11 08:19:32;;;;;;;43.97;20.48;;;1.50;99.90;;;;;;4992765;28;20259;-69
2021/12/11 08:22:01;;;;;;;36.80;19.63;;;1.50;99.90;;;;;;4990687;28;20238;-69
2021/12/11 08:24:29;;;;;;;41.83;19.70;;;1.50;99.90;;;;;;4994296;28;20208;-70
2021/12/11 08:26:59;;;;;;;43.10;19.83;;;1.50;99.90;;;;;;4998488;28;20212;-70
2021/12/11 08:29:26;;;;;;;43.05;20.48;;;1.50;99.90;;;;;;4997928;28;20231;-69
2021/12/11 08:31:58;;;;;;;43.95;21.00;;;1.50;99.90;;;;;;4996972;28;20633;-68
2021/12/11 08:34:25;;;;;;;38.28;19.40;;;1.50;99.90;;;;;;5003342;28;20207;-70
2021/12/11 08:36:52;;;;;;;40.72;18.42;;;1.50;99.90;;;;;;4998079;28;20219;-70
2021/12/11 08:39:20;;;;;;;43.30;21.00;;;1.60;99.90;;;;;;5002821;28;20286;-69
2021/12/11 08:41:51;;;;;;;37.58;19.63;;;1.60;99.90;;;;;;5011233;28;20246;-71
2021/12/11 08:44:18;;;;;;;42.88;20.05;;;1.60;99.90;;;;;;5003897;28;20370;-70
2021/12/11 08:46:49;;;;;;;44.05;20.73;;;1.60;99.90;;;;;;5003774;28;20215;-71
2021/12/11 08:49:21;;;;;;;47.50;23.15;;;1.70;99.90;;;;;;5011996;28;20632;-70
2021/12/11 08:51:51;;;;;;;41.92;21.33;;;1.70;99.90;;;;;;5013350;28;20281;-71
2021/12/11 08:54:20;;;;;;;54.25;21.52;;;1.70;99.90;;;;;;5010471;28;20200;-70
2021/12/11 08:56:49;;;;;;;47.72;21.75;;;1.70;99.90;;;;;;5007363;28;20204;-69
2021/12/11 08:59:19;;;;;;;40.28;22.17;;;1.70;99.90;;;;;;5009896;28;20511;-70
2021/12/11 09:01:53;;;;;;;42.28;20.75;;;1.80;99.90;;;;;;5008308;28;20239;-70
2021/12/11 09:04:24;;;;;;;46.65;20.20;;;1.80;99.90;;;;;;5012351;28;20597;-69
2021/12/11 09:06:55;;;;;;;43.85;20.80;;;1.90;99.90;;;;;;4996101;28;20211;-69
2021/12/11 09:09:26;;;;;;;47.67;21.45;;;2.00;99.90;;;;;;4994058;28;20660;-69
2021/12/11 09:11:57;;;;;;;52.05;21.55;;;2.10;99.90;;;;;;4995372;28;20224;-69
2021/12/11 09:14:29;;;;;;;42.78;21.33;;;2.10;99.90;;;;;;5012704;28;20249;-68
2021/12/11 09:17:00;;;;;;;44.63;20.95;;;2.20;99.90;;;;;;4993686;28;20203;-71
2021/12/11 09:19:31;;;;;;;38.25;19.95;;;2.30;99.90;;;;;;4997200;28;20283;-70
2021/12/11 09:22:09;;;;;;;42.15;19.90;;;2.40;99.90;;;;;;4998117;28;20223;-70
2021/12/11 09:24:39;;;;;;;39.78;22.45;;;2.40;99.90;;;;;;5002713;28;20218;-70
2021/12/11 09:27:12;;;;;;;40.95;19.85;;;2.60;99.90;;;;;;4994378;28;20207;-70
2021/12/11 09:29:48;;;;;;;43.67;22.00;;;2.70;99.90;;;;;;5010832;28;20231;-69
2021/12/11 09:32:19;;;;;;;37.25;19.77;;;2.80;99.90;;;;;;5010276;28;20320;-71
2021/12/11 09:34:50;;;;;;;37.13;19.63;;;2.80;99.90;;;;;;5001250;28;20639;-70
2021/12/11 09:37:17;;;;;;;40.53;20.77;;;2.90;99.90;;;;;;5005842;28;20715;-70
2021/12/11 09:39:48;;;;;;;36.13;19.98;;;3.00;99.90;;;;;;5010983;28;20215;-70
2021/12/11 09:42:14;;;;;;;35.88;20.33;;;3.10;99.90;;;;;;4995777;28;20648;-69
2021/12/11 09:44:46;;;;;;;38.22;20.08;;;3.20;99.90;;;;;;5005468;28;20702;-69
2021/12/11 09:47:18;;;;;;;33.97;20.10;;;3.20;99.90;;;;;;5012047;28;20254;-69
2021/12/11 09:49:47;;;;;;;38.55;20.05;;;3.20;99.90;;;;;;5006326;28;20231;-70
2021/12/11 09:52:18;;;;;;;33.65;19.17;;;3.30;99.90;;;;;;4996549;28;20235;-70
2021/12/11 09:54:48;;;;;;;30.30;17.90;;;3.40;99.90;;;;;;4998509;28;20212;-69
2021/12/11 09:57:18;;;;;;;35.33;21.30;;;3.50;99.90;;;;;;5012257;28;20211;-70
2021/12/11 09:59:49;;;;;;;35.17;18.88;;;3.60;99.90;;;;;;4998671;28;20200;-69
2021/12/11 10:02:20;;;;;;;33.15;20.38;;;3.70;99.90;;;;;;4992278;28;20883;-69
2021/12/11 10:04:57;;;;;;;27.48;17.90;;;3.80;99.90;;;;;;5001618;28;20218;-69
2021/12/11 10:07:27;;;;;;;33.00;19.20;;;3.90;99.90;;;;;;4994618;28;20235;-71
2021/12/11 10:09:59;;;;;;;26.13;17.90;;;4.00;99.90;;;;;;5002367;28;20842;-70
2021/12/11 10:12:29;;;;;;;31.85;19.20;;;4.10;99.90;;;;;;5014135;28;20226;-70
2021/12/11 10:15:01;;;;;;;29.08;18.05;;;4.10;99.90;;;;;;5010668;28;20298;-69
2021/12/11 10:17:34;;;;;;;29.35;16.23;;;4.10;99.90;;;;;;5004069;28;20249;-69
2021/12/11 10:20:02;;;;;;;29.70;17.85;;;4.20;99.90;;;;;;5010693;28;20515;-70
2021/12/11 10:22:33;;;;;;;26.80;15.50;;;4.20;99.90;;;;;;5012103;28;20285;-71
2021/12/11 10:25:01;;;;;;;29.70;17.20;;;4.20;99.90;;;;;;5004104;28;20668;-71
2021/12/11 10:27:31;;;;;;;26.65;16.80;;;4.20;99.90;;;;;;5002274;28;20814;-70
2021/12/11 10:30:02;;;;;;;25.98;16.83;;;4.30;99.90;;;;;;5008588;28;20286;-71
2021/12/11 10:32:32;;;;;;;29.20;15.98;;;4.30;99.90;;;;;;4992295;28;20595;-71
2021/12/11 10:35:03;;;;;;;33.65;17.77;;;4.30;99.90;;;;;;5003707;28;20200;-71
2021/12/11 10:37:34;;;;;;;24.30;16.55;;;4.40;99.90;;;;;;4996627;28;20204;-69
2021/12/11 10:40:07;;;;;;;25.30;15.68;;;4.40;99.90;;;;;;4994890;28;20199;-71
2021/12/11 10:42:34;;;;;;;27.10;15.38;;;4.40;99.90;;;;;;5002025;28;20285;-69
2021/12/11 10:45:07;;;;;;;26.48;17.52;;;4.40;99.90;;;;;;5008604;28;20206;-70
2021/12/11 10:47:37;;;;;;;36.47;17.77;;;4.50;99.90;;;;;;4993122;28;20356;-70
2021/12/11 10:50:06;;;;;;;31.15;19.10;;;4.60;99.90;;;;;;4991629;28;20641;-70
2021/12/11 10:52:33;;;;;;;24.83;15.13;;;4.70;99.90;;;;;;5000692;28;20223;-70
2021/12/11 10:55:04;;;;;;;24.75;16.92;;;4.70;99.90;;;;;;5009123;28;20273;-72
2021/12/11 10:57:32;;;;;;;24.73;15.80;;;4.70;99.90;;;;;;4993429;28;20215;-69
2021/12/11 11:00:01;;;;;;;25.65;14.52;;;4.70;99.90;;;;;;4993024;28;20295;-69
2021/12/11 11:02:33;;;;;;;21.00;16.25;;;4.80;99.90;;;;;;5006308;28;20277;-70
2021/12/11 11:05:05;;;;;;;21.83;14.77;;;4.70;99.90;;;;;;5007097;28;20278;-70
2021/12/11 11:07:32;;;;;;;19.63;14.50;;;4.70;99.90;;;;;;4995167;28;20649;-70
2021/12/11 11:10:01;;;;;;;20.35;14.65;;;4.80;99.90;;;;;;5005692;28;20793;-69
2021/12/11 11:12:30;;;;;;;26.52;16.85;;;4.70;99.90;;;;;;4991815;28;20691;-70
2021/12/11 11:14:57;;;;;;;24.70;14.80;;;4.70;99.90;;;;;;5004600;28;20199;-70
2021/12/11 11:17:30;;;;;;;24.13;16.33;;;4.70;99.90;;;;;;5005121;28;20208;-70
2021/12/11 11:19:58;;;;;;;24.50;15.07;;;4.70;99.90;;;;;;4991777;28;20231;-69
2021/12/11 11:22:29;;;;;;;24.88;16.85;;;4.70;99.90;;;;;;5008190;28;20231;-69
2021/12/11 11:25:01;;;;;;;26.83;15.98;;;4.70;99.90;;;;;;4999170;28;20215;-70
2021/12/11 11:27:28;;;;;;;29.30;19.23;;;4.80;99.90;;;;;;4990448;28;20460;-70
2021/12/11 11:29:55;;;;;;;27.25;17.38;;;5.00;99.90;;;;;;4991527;28;20545;-70
2021/12/11 11:32:31;;;;;;;24.13;15.85;;;5.10;99.90;;;;;;4991177;28;20286;-69
2021/12/11 11:35:02;;;;;;;22.15;15.77;;;5.10;99.90;;;;;;5005249;28;20219;-69
2021/12/11 11:37:32;;;;;;;25.40;16.15;;;5.20;99.90;;;;;;5002022;28;20648;-69
2021/12/11 11:39:59;;;;;;;27.00;14.68;;;5.20;99.90;;;;;;4999420;28;20258;-69
2021/12/11 11:42:26;;;;;;;21.17;14.38;;;5.20;99.90;;;;;;4991017;28;20232;-68
2021/12/11 11:44:54;;;;;;;22.20;14.80;;;5.10;99.90;;;;;;5008790;28;20714;-69
2021/12/11 11:47:21;;;;;;;21.80;14.23;;;5.10;99.90;;;;;;5009541;28;20195;-68
2021/12/11 11:49:48;;;;;;;22.05;13.60;;;5.10;99.90;;;;;;5001020;28;20301;-68
2021/12/11 11:52:19;;;;;;;24.73;16.55;;;5.10;99.90;;;;;;5007421;28;20254;-68
2021/12/11 11:54:48;;;;;;;21.58;14.32;;;5.20;99.90;;;;;;5010651;28;20215;-67
2021/12/11 11:57:19;;;;;;;20.15;14.05;;;5.20;99.90;;;;;;5006893;28;20215;-69
2021/12/11 11:59:46;;;;;;;24.88;15.30;;;5.20;99.90;;;;;;5006201;28;20290;-68
2021/12/11 12:02:17;;;;;;;19.80;14.25;;;5.20;99.90;;;;;;5002769;28;20731;-69
2021/12/11 12:04:46;;;;;;;26.40;13.45;;;5.20;99.90;;;;;;5007620;28;20206;-69
2021/12/11 12:07:13;;;;;;;23.75;13.90;;;5.20;99.90;;;;;;4998351;28;20672;-67
2021/12/11 12:09:44;;;;;;;21.83;14.30;;;5.20;99.90;;;;;;5008592;28;20231;-70
2021/12/11 12:12:14;;;;;;;20.70;13.35;;;5.20;99.90;;;;;;5008529;28;20628;-70
2021/12/11 12:14:43;;;;;;;19.83;13.45;;;5.10;99.90;;;;;;5008054;28;20207;-69
2021/12/11 12:17:13;;;;;;;21.52;13.85;;;5.10;99.90;;;;;;5011779;28;20726;-69
2021/12/11 12:19:40;;;;;;;20.30;13.70;;;5.10;99.90;;;;;;5008452;28;20354;-70
2021/12/11 12:22:09;;;;;;;21.23;13.57;;;5.00;99.90;;;;;;5012746;28;20365;-70
2021/12/11 12:24:39;;;;;;;18.95;14.52;;;5.00;99.90;;;;;;5010560;28;20257;-70
2021/12/11 12:27:13;;;;;;;22.13;14.32;;;5.00;99.90;;;;;;5010546;28;20269;-69
2021/12/11 12:29:41;;;;;;;21.83;14.07;;;4.90;99.90;;;;;;5000899;28;20270;-69
2021/12/11 12:32:11;;;;;;;21.77;15.15;;;5.00;99.90;;;;;;5004848;28;20292;-69
2021/12/11 12:34:39;;;;;;;22.67;13.63;;;5.30;99.90;;;;;;5003851;28;20215;-69
2021/12/11 12:37:08;;;;;;;17.65;13.23;;;5.30;99.90;;;;;;5008936;28;20200;-71
2021/12/11 12:39:40;;;;;;;22.40;14.02;;;5.30;99.90;;;;;;5002998;28;20273;-68
2021/12/11 12:42:21;;;;;;;21.60;14.63;;;5.30;99.90;;;;;;5004278;28;20227;-69
2021/12/11 12:44:51;;;;;;;22.83;14.57;;;5.30;99.90;;;;;;4994052;28;20257;-71
2021/12/11 12:47:20;;;;;;;19.45;13.30;;;5.30;99.90;;;;;;5001907;28;20208;-69
2021/12/11 12:49:50;;;;;;;19.67;12.70;;;5.40;99.90;;;;;;5007954;28;20321;-69
2021/12/11 12:52:19;;;;;;;20.17;14.85;;;5.30;99.90;;;;;;5013194;28;20653;-70
2021/12/11 12:54:47;;;;;;;22.25;14.07;;;5.30;99.90;;;;;;5010678;28;20684;-70
2021/12/11 12:57:18;;;;;;;16.98;11.63;;;5.40;99.90;;;;;;5013475;28;20254;-69
2021/12/11 12:59:55;;;;;;;20.98;14.05;;;5.40;99.90;;;;;;5007354;28;20204;-69
2021/12/11 13:02:24;;;;;;;16.83;12.00;;;5.40;99.90;;;;;;5012960;28;20304;-70
2021/12/11 13:04:56;;;;;;;17.83;11.80;;;5.30;99.90;;;;;;5013304;28;20730;-70
2021/12/11 13:07:23;;;;;;;15.60;12.60;;;5.40;99.90;;;;;;5013282;28;20207;-70
2021/12/11 13:09:52;;;;;;;18.08;12.50;;;5.30;99.90;;;;;;5013142;28;20285;-70
2021/12/11 13:12:24;;;;;;;15.90;11.50;;;5.30;99.90;;;;;;5013422;28;20236;-70
2021/12/11 13:14:56;;;;;;;16.75;10.55;;;5.30;99.90;;;;;;5013899;28;20273;-70
2021/12/11 13:17:27;;;;;;;19.27;11.98;;;5.30;99.90;;;;;;5013315;28;20211;-70
2021/12/11 13:19:57;;;;;;;19.00;13.63;;;5.30;99.90;;;;;;5012981;28;20233;-70
2021/12/11 13:22:27;;;;;;;16.20;11.85;;;5.30;99.90;;;;;;5003159;28;20875;-70
2021/12/11 13:24:59;;;;;;;19.20;12.30;;;5.30;99.90;;;;;;4993322;28;20223;-71
2021/12/11 13:27:29;;;;;;;19.60;11.20;;;5.30;99.90;;;;;;4993669;28;20225;-69
2021/12/11 13:30:00;;;;;;;17.85;11.52;;;5.20;99.90;;;;;;4993105;28;20274;-70
2021/12/11 13:32:29;;;;;;;18.75;11.85;;;5.30;99.90;;;;;;4992919;28;20231;-70
2021/12/11 13:34:59;;;;;;;13.88;11.32;;;5.30;99.90;;;;;;4992809;28;20239;-71
2021/12/11 13:37:28;;;;;;;26.35;16.55;;;5.30;99.90;;;;;;5008356;28;20212;-69
2021/12/11 13:39:56;;;;;;;14.10;10.40;;;5.30;99.90;;;;;;5012012;28;20211;-70
2021/12/11 13:42:26;;;;;;;30.13;17.77;;;5.30;99.90;;;;;;5012595;28;20257;-71
2021/12/11 13:44:57;;;;;;;17.33;11.55;;;5.30;99.90;;;;;;5012618;28;20273;-69
2021/12/11 13:47:27;;;;;;;19.98;13.85;;;5.30;99.90;;;;;;5012321;28;20281;-70
2021/12/11 13:49:55;;;;;;;35.88;21.52;;;5.30;99.90;;;;;;5007067;28;20277;-71
2021/12/11 13:52:22;;;;;;;21.77;14.20;;;5.30;99.90;;;;;;5012406;28;20293;-70
2021/12/11 13:54:52;;;;;;;17.02;10.65;;;5.20;99.90;;;;;;5012561;28;20668;-70
2021/12/11 13:57:24;;;;;;;19.30;14.38;;;5.20;99.90;;;;;;5012062;28;20207;-69
2021/12/11 13:59:54;;;;;;;13.43;10.73;;;5.20;99.90;;;;;;5001984;28;20634;-70
2021/12/11 14:02:23;;;;;;;12.98;10.82;;;5.20;99.90;;;;;;5001140;28;20251;-69
2021/12/11 14:04:50;;;;;;;16.70;11.73;;;5.20;99.90;;;;;;5011396;28;20552;-70
2021/12/11 14:07:21;;;;;;;20.50;12.82;;;5.10;99.90;;;;;;5007025;28;20265;-68
2021/12/11 14:09:52;;;;;;;16.15;12.10;;;5.10;99.90;;;;;;5006621;28;20242;-69
2021/12/11 14:12:19;;;;;;;23.30;13.77;;;5.20;99.90;;;;;;5011442;28;20223;-69
2021/12/11 14:14:46;;;;;;;40.28;18.50;;;5.10;99.90;;;;;;5011893;28;20703;-69
2021/12/11 14:17:14;;;;;;;19.92;14.15;;;5.10;99.90;;;;;;5010874;28;20211;-66
2021/12/11 14:19:43;;;;;;;20.88;12.73;;;5.10;99.90;;;;;;5009740;28;20204;-68
2021/12/11 14:22:10;;;;;;;17.15;10.85;;;5.10;99.90;;;;;;4994096;28;20319;-68
2021/12/11 14:24:37;;;;;;;16.17;12.20;;;5.10;99.90;;;;;;4997664;28;20229;-69
2021/12/11 14:27:13;;;;;;;16.92;11.15;;;5.10;99.90;;;;;;5004707;28;20203;-68
2021/12/11 14:29:45;;;;;;;13.25;11.27;;;5.00;99.90;;;;;;4991569;28;20683;-68
2021/12/11 14:32:14;;;;;;;14.85;12.30;;;5.00;99.90;;;;;;5007716;28;20585;-69
2021/12/11 14:34:41;;;;;;;15.95;10.68;;;5.00;99.90;;;;;;5010319;28;20207;-69
2021/12/11 14:37:08;;;;;;;17.80;11.27;;;5.00;99.90;;;;;;5010629;28;20262;-68
2021/12/11 14:39:36;;;;;;;12.30;10.15;;;5.00;99.90;;;;;;5010794;28;20207;-69
2021/12/11 14:42:03;;;;;;;13.90;9.02;;;5.00;99.90;;;;;;5010335;28;20770;-71
2021/12/11 14:44:33;;;;;;;14.35;10.07;;;5.00;99.90;;;;;;5011588;28;20441;-70
2021/12/11 14:47:03;;;;;;;13.68;9.57;;;4.90;99.90;;;;;;5007983;28;20210;-71
2021/12/11 14:49:32;;;;;;;13.18;9.85;;;4.90;99.90;;;;;;5029725;28;20222;-71
2021/12/11 14:52:01;;;;;;;12.27;10.05;;;4.90;99.90;;;;;;5012472;28;20773;-71
2021/12/11 14:54:28;;;;;;;14.38;10.73;;;4.90;99.90;;;;;;5010957;28;20269;-69
2021/12/11 14:56:58;;;;;;;13.15;9.35;;;4.90;99.90;;;;;;5009379;28;20288;-71
2021/12/11 14:59:29;;;;;;;13.77;10.00;;;4.90;99.90;;;;;;5006978;28;20261;-70
2021/12/11 15:01:58;;;;;;;17.23;10.00;;;5.00;99.90;;;;;;5014127;28;20227;-70
2021/12/11 15:04:28;;;;;;;11.60;9.20;;;4.90;99.90;;;;;;5006609;28;20207;-71
2021/12/11 15:06:57;;;;;;;15.55;9.45;;;4.90;99.90;;;;;;5017221;28;20236;-71
2021/12/11 15:09:24;;;;;;;16.80;11.73;;;4.90;99.90;;;;;;5011972;28;20664;-71
2021/12/11 15:11:52;;;;;;;14.05;10.20;;;4.90;99.90;;;;;;5005815;28;20710;-70
2021/12/11 15:14:21;;;;;;;26.02;14.52;;;4.90;99.90;;;;;;5011793;28;20231;-70
2021/12/11 15:16:51;;;;;;;15.68;10.75;;;4.90;99.90;;;;;;5028504;28;20284;-70
2021/12/11 15:19:18;;;;;;;15.93;10.38;;;4.80;99.90;;;;;;5009542;28;20265;-70
2021/12/11 15:21:46;;;;;;;12.52;10.80;;;4.80;99.90;;;;;;5010726;28;20239;-69
2021/12/11 15:24:14;;;;;;;19.42;12.18;;;4.80;99.90;;;;;;5010620;28;20267;-71
2021/12/11 15:26:42;;;;;;;15.75;11.20;;;4.70;99.90;;;;;;5012755;28;20210;-70
2021/12/11 15:29:12;;;;;;;23.23;13.63;;;4.70;99.90;;;;;;5024312;28;20228;-69
2021/12/11 15:31:42;;;;;;;18.45;12.80;;;4.70;99.90;;;;;;5010284;28;20322;-69
2021/12/11 15:34:13;;;;;;;20.02;12.82;;;4.70;99.90;;;;;;5009534;28;20827;-68
2021/12/11 15:36:42;;;;;;;17.48;14.68;;;4.70;99.90;;;;;;5003350;28;20202;-69
2021/12/11 15:39:16;;;;;;;18.95;13.35;;;4.60;99.90;;;;;;5005034;28;20371;-69
2021/12/11 15:41:44;;;;;;;16.83;12.45;;;4.60;99.90;;;;;;5006672;28;20277;-71
2021/12/11 15:44:11;;;;;;;16.98;12.00;;;4.60;99.90;;;;;;5006558;28;20264;-71
2021/12/11 15:46:38;;;;;;;15.82;12.50;;;4.60;99.90;;;;;;5005333;28;20209;-70
2021/12/11 15:49:05;;;;;;;19.20;13.23;;;4.60;99.90;;;;;;5008810;28;20751;-70
2021/12/11 15:51:34;;;;;;;17.73;13.65;;;4.60;99.90;;;;;;5009478;28;20231;-70
2021/12/11 15:54:02;;;;;;;16.90;12.73;;;4.60;99.90;;;;;;5012858;28;20211;-70
2021/12/11 15:56:30;;;;;;;17.75;13.05;;;4.60;99.90;;;;;;5018650;28;20580;-71
2021/12/11 15:59:01;;;;;;;20.10;14.38;;;4.60;99.90;;;;;;5009997;28;20209;-70
2021/12/11 16:01:32;;;;;;;24.30;14.60;;;4.60;99.90;;;;;;5000129;28;20235;-70
2021/12/11 16:04:00;;;;;;;17.30;12.25;;;4.60;99.90;;;;;;5002259;28;20195;-69
2021/12/11 16:06:27;;;;;;;19.02;13.02;;;4.60;99.90;;;;;;4992046;28;20200;-68
2021/12/11 16:08:56;;;;;;;24.40;18.92;;;4.60;99.90;;;;;;5006925;28;20215;-67
2021/12/11 16:11:26;;;;;;;18.58;12.98;;;4.60;99.90;;;;;;5008451;28;20231;-69
2021/12/11 16:13:53;;;;;;;18.40;12.50;;;4.60;99.90;;;;;;5005079;28;20277;-69
2021/12/11 16:16:21;;;;;;;19.08;13.05;;;4.60;99.90;;;;;;5006244;28;20203;-68
2021/12/11 16:18:48;;;;;;;19.38;12.43;;;4.60;99.90;;;;;;5019319;28;20206;-69
2021/12/11 16:21:17;;;;;;;14.27;10.27;;;4.60;99.90;;;;;;5011807;28;20269;-69
2021/12/11 16:23:55;;;;;;;16.20;10.43;;;4.60;99.90;;;;;;4994024;28;20203;-68
2021/12/11 16:26:22;;;;;;;15.02;11.20;;;4.60;99.90;;;;;;5005381;28;20227;-69
2021/12/11 16:28:49;;;;;;;12.75;10.30;;;4.60;99.90;;;;;;5009542;28;20556;-68
2021/12/11 16:31:15;;;;;;;11.25;10.15;;;4.60;99.90;;;;;;5003483;28;20234;-69
2021/12/11 16:33:44;;;;;;;19.52;12.38;;;4.60;99.90;;;;;;5005218;28;20577;-67
2021/12/11 16:36:11;;;;;;;15.18;11.10;;;4.60;99.90;;;;;;5004229;28;20254;-68
2021/12/11 16:38:44;;;;;;;16.73;11.18;;;4.60;99.90;;;;;;5005493;28;20294;-70
2021/12/11 16:41:31;;;;;;;14.93;10.88;;;4.60;99.90;;;;;;5004248;28;20223;-68
2021/12/11 16:44:01;;;;;;;16.75;12.45;;;4.60;99.90;;;;;;5006808;28;20294;-68
2021/12/11 16:46:32;;;;;;;16.77;10.93;;;4.60;99.90;;;;;;5007907;28;20211;-69
2021/12/11 16:48:59;;;;;;;19.10;10.73;;;4.60;99.90;;;;;;5001681;28;20563;-71
2021/12/11 16:51:26;;;;;;;13.85;10.93;;;4.60;99.90;;;;;;5004722;28;20597;-68
2021/12/11 16:53:56;;;;;;;16.38;10.98;;;4.60;99.90;;;;;;5006744;28;20668;-70
2021/12/11 16:56:26;;;;;;;16.38;11.55;;;4.60;99.90;;;;;;5000031;28;20196;-70
2021/12/11 16:58:56;;;;;;;15.82;10.60;;;4.60;99.90;;;;;;5012414;28;20203;-70
2021/12/11 17:01:25;;;;;;;18.08;10.23;;;4.60;99.90;;;;;;4999272;28;20234;-68
2021/12/11 17:03:53;;;;;;;16.50;11.48;;;4.60;99.90;;;;;;5008369;28;20204;-70
2021/12/11 17:06:23;;;;;;;14.90;11.65;;;4.60;99.90;;;;;;5012104;28;20290;-69
2021/12/11 17:08:50;;;;;;;12.60;9.93;;;4.60;99.90;;;;;;5012149;28;20207;-68
2021/12/11 17:11:18;;;;;;;16.30;10.90;;;4.60;99.90;;;;;;5009014;28;20239;-70
2021/12/11 17:13:45;;;;;;;17.90;11.20;;;4.60;99.90;;;;;;5032954;28;20222;-69
2021/12/11 17:16:13;;;;;;;18.10;12.75;;;4.60;99.90;;;;;;5013687;28;20534;-67
2021/12/11 17:18:41;;;;;;;14.27;11.07;;;4.60;99.90;;;;;;5004885;28;20222;-67
2021/12/11 17:21:12;;;;;;;16.15;11.10;;;4.60;99.90;;;;;;5006296;28;20231;-68
2021/12/11 17:23:39;;;;;;;18.10;12.85;;;4.60;99.90;;;;;;5006742;28;20195;-68
2021/12/11 17:26:07;;;;;;;14.02;9.90;;;4.60;99.90;;;;;;5002467;28;20208;-68
2021/12/11 17:28:38;;;;;;;14.48;11.13;;;4.60;99.90;;;;;;4997638;28;20262;-68
2021/12/11 17:31:05;;;;;;;15.02;10.18;;;4.60;99.90;;;;;;5008805;28;20264;-69
2021/12/11 17:33:32;;;;;;;15.45;10.43;;;4.60;99.90;;;;;;5013379;28;20211;-68
2021/12/11 17:35:59;;;;;;;12.55;10.75;;;4.60;99.90;;;;;;5012838;28;20208;-70
2021/12/11 17:38:26;;;;;;;14.55;11.30;;;4.60;99.90;;;;;;5011479;28;20211;-67
2021/12/11 17:40:53;;;;;;;14.55;11.43;;;4.60;99.90;;;;;;5012271;28;20219;-69
2021/12/11 17:43:20;;;;;;;15.27;11.70;;;4.50;99.90;;;;;;5008939;28;20212;-68
2021/12/11 17:45:49;;;;;;;15.48;11.27;;;4.50;99.90;;;;;;4993167;28;20207;-68
2021/12/11 17:48:16;;;;;;;16.88;11.43;;;4.50;99.90;;;;;;4999117;28;20231;-68
2021/12/11 17:50:48;;;;;;;16.92;11.55;;;4.50;99.90;;;;;;5006876;28;20237;-69